Time;durP1;ratioP1;P1;durP2;ratioP2;P2;SDS_P1;SDS_P2;PMS_P1;PMS_P2;Temp;Humidity;BMP_temperature;BMP_pressure;BME280_temperature;BME280_humidity;BME280_pressure;Samples;Min_cycle;Max_cycle;Signal;HPM_P1;HPM_P2
2021/05/30 00:00:26;;;;;;;23.02;14.35;;;10.30;95.70;;;;;;5036257;28;20508;-67
2021/05/30 00:02:53;;;;;;;19.38;13.52;;;10.30;95.70;;;;;;5027158;28;20043;-67
2021/05/30 00:05:19;;;;;;;19.88;13.40;;;10.30;95.70;;;;;;5027484;28;20044;-67
2021/05/30 00:07:45;;;;;;;18.40;11.93;;;10.40;95.70;;;;;;5018609;28;20048;-67
2021/05/30 00:10:11;;;;;;;21.20;12.85;;;10.40;95.40;;;;;;5031154;28;20161;-67
2021/05/30 00:12:38;;;;;;;18.70;12.40;;;10.30;95.50;;;;;;5022575;28;20037;-67
2021/05/30 00:15:06;;;;;;;23.50;11.80;;;10.30;95.50;;;;;;5027120;28;20073;-67
2021/05/30 00:17:31;;;;;;;19.33;12.00;;;10.30;95.50;;;;;;5028721;28;20524;-67
2021/05/30 00:19:57;;;;;;;18.00;12.07;;;10.30;95.40;;;;;;5026022;28;20370;-66
2021/05/30 00:22:23;;;;;;;21.52;11.60;;;10.30;95.40;;;;;;5020172;28;20046;-66
2021/05/30 00:24:49;;;;;;;21.15;12.05;;;10.30;95.30;;;;;;5029484;28;20064;-66
2021/05/30 00:27:15;;;;;;;15.27;11.30;;;10.30;95.50;;;;;;5024926;28;20648;-66
2021/05/30 00:29:41;;;;;;;19.92;11.23;;;10.30;95.50;;;;;;5027630;28;20112;-66
2021/05/30 00:32:07;;;;;;;18.05;12.43;;;10.30;95.50;;;;;;5030132;28;20478;-66
2021/05/30 00:34:33;;;;;;;20.17;12.45;;;10.30;95.50;;;;;;5022309;28;20030;-66
2021/05/30 00:36:58;;;;;;;18.67;12.63;;;10.30;95.40;;;;;;5036817;28;20040;-66
2021/05/30 00:39:24;;;;;;;22.75;11.63;;;10.30;95.50;;;;;;5018570;28;20477;-66
2021/05/30 00:41:50;;;;;;;22.15;12.35;;;10.20;95.40;;;;;;5027866;28;20072;-66
2021/05/30 00:44:23;;;;;;;21.92;12.60;;;10.20;95.60;;;;;;5025001;28;20447;-66
2021/05/30 00:46:50;;;;;;;22.80;13.40;;;10.20;95.60;;;;;;5028950;28;20064;-66
2021/05/30 00:49:16;;;;;;;19.08;12.27;;;10.20;95.50;;;;;;5023486;28;20563;-66
2021/05/30 00:51:42;;;;;;;19.38;12.52;;;10.30;95.50;;;;;;5036205;28;20045;-66
2021/05/30 00:54:09;;;;;;;20.60;13.45;;;10.20;95.90;;;;;;5025548;28;20121;-66
2021/05/30 00:56:35;;;;;;;21.88;14.25;;;10.20;95.60;;;;;;5028318;28;20420;-66
2021/05/30 00:59:03;;;;;;;19.52;15.13;;;10.20;95.60;;;;;;5027445;28;20053;-66
2021/05/30 01:01:28;;;;;;;22.45;14.93;;;10.20;95.80;;;;;;5033107;28;20034;-66
2021/05/30 01:03:54;;;;;;;19.40;14.00;;;10.20;95.60;;;;;;5027856;28;20045;-67
2021/05/30 01:06:26;;;;;;;18.27;13.95;;;10.20;95.40;;;;;;5032460;28;20520;-67
2021/05/30 01:08:52;;;;;;;19.10;13.45;;;10.20;95.30;;;;;;5022635;28;20069;-67
2021/05/30 01:11:22;;;;;;;20.65;14.10;;;10.20;95.40;;;;;;5024915;28;20464;-67
2021/05/30 01:13:51;;;;;;;20.50;13.75;;;10.20;95.00;;;;;;5029745;28;20044;-67
2021/05/30 01:16:18;;;;;;;20.77;13.25;;;10.00;95.00;;;;;;5025588;28;20053;-67
2021/05/30 01:18:47;;;;;;;24.30;13.93;;;10.00;94.90;;;;;;5034562;28;20065;-67
2021/05/30 01:21:13;;;;;;;21.13;14.32;;;10.00;94.90;;;;;;5018758;28;20069;-67
2021/05/30 01:23:39;;;;;;;20.65;14.00;;;9.90;95.10;;;;;;5024709;28;20038;-66
2021/05/30 01:26:05;;;;;;;23.40;14.93;;;9.80;95.10;;;;;;5022566;28;20453;-66
2021/05/30 01:28:31;;;;;;;20.30;13.68;;;9.80;95.10;;;;;;5041726;28;20055;-66
2021/05/30 01:30:57;;;;;;;23.00;13.93;;;9.70;95.20;;;;;;5025565;28;20045;-66
2021/05/30 01:33:23;;;;;;;20.45;13.57;;;9.70;95.20;;;;;;5037322;28;20485;-66
2021/05/30 01:35:49;;;;;;;20.52;12.30;;;9.60;95.40;;;;;;5031811;28;20751;-66
2021/05/30 01:38:15;;;;;;;20.63;13.65;;;9.60;95.40;;;;;;5032991;28;20049;-66
2021/05/30 01:40:41;;;;;;;22.25;13.75;;;9.60;95.60;;;;;;5022933;28;20049;-66
2021/05/30 01:43:07;;;;;;;25.40;13.27;;;9.50;95.70;;;;;;5029758;28;20065;-66
2021/05/30 01:45:34;;;;;;;19.90;12.48;;;9.50;95.80;;;;;;5027585;28;20057;-66
2021/05/30 01:48:02;;;;;;;20.60;12.32;;;9.50;96.10;;;;;;5040575;28;20057;-66
2021/05/30 01:50:31;;;;;;;17.30;11.68;;;9.40;96.10;;;;;;5028255;28;20056;-66
2021/05/30 01:53:01;;;;;;;17.48;11.98;;;9.40;96.20;;;;;;5023522;28;20046;-66
2021/05/30 01:55:50;;;;;;;22.75;14.00;;;9.40;96.20;;;;;;5033639;28;20037;-66
2021/05/30 01:58:17;;;;;;;21.23;12.68;;;9.40;96.30;;;;;;5038242;28;20087;-66
2021/05/30 02:00:45;;;;;;;22.95;13.50;;;9.40;96.60;;;;;;5021739;28;20127;-66
2021/05/30 02:03:12;;;;;;;19.55;12.57;;;9.40;96.50;;;;;;5028295;28;20060;-66
2021/05/30 02:05:41;;;;;;;21.88;13.23;;;9.40;96.70;;;;;;5041499;28;20444;-66
2021/05/30 02:08:08;;;;;;;20.35;13.45;;;9.40;96.70;;;;;;5025505;28;20041;-66
2021/05/30 02:10:35;;;;;;;20.55;13.32;;;9.40;96.80;;;;;;5030759;28;20099;-66
2021/05/30 02:13:04;;;;;;;22.17;13.32;;;9.40;96.70;;;;;;5024512;28;20042;-66
2021/05/30 02:15:30;;;;;;;18.13;12.38;;;9.40;96.90;;;;;;5034039;28;20527;-66
2021/05/30 02:17:56;;;;;;;19.48;12.63;;;9.30;96.90;;;;;;5028180;28;20053;-66
2021/05/30 02:20:35;;;;;;;18.02;13.02;;;9.30;97.00;;;;;;5026616;28;20048;-66
2021/05/30 02:23:02;;;;;;;17.10;12.65;;;9.30;96.70;;;;;;5023846;28;20245;-66
2021/05/30 02:25:27;;;;;;;25.20;14.05;;;9.20;96.70;;;;;;5032098;28;20037;-66
2021/05/30 02:27:54;;;;;;;20.25;12.48;;;9.20;96.70;;;;;;5027698;28;20046;-66
2021/05/30 02:30:22;;;;;;;22.80;13.65;;;9.20;96.90;;;;;;5033332;28;20041;-66
2021/05/30 02:32:48;;;;;;;21.70;12.65;;;9.10;96.80;;;;;;5022742;28;20481;-66
2021/05/30 02:35:15;;;;;;;19.00;11.75;;;9.00;96.80;;;;;;5042567;28;20088;-66
2021/05/30 02:37:42;;;;;;;19.35;12.95;;;8.90;97.00;;;;;;5020860;28;20040;-66
2021/05/30 02:40:08;;;;;;;21.10;12.73;;;8.90;97.10;;;;;;5031862;28;20045;-66
2021/05/30 02:42:34;;;;;;;17.33;12.05;;;8.90;97.20;;;;;;5023258;28;20033;-66
2021/05/30 02:45:01;;;;;;;17.52;11.35;;;8.80;97.20;;;;;;5032371;28;20118;-66
2021/05/30 02:47:27;;;;;;;18.75;12.07;;;8.80;97.10;;;;;;5025691;28;20525;-66
2021/05/30 02:49:53;;;;;;;22.90;12.98;;;8.80;97.30;;;;;;5029316;28;20174;-66
2021/05/30 02:52:19;;;;;;;16.10;11.65;;;8.70;97.30;;;;;;5034218;28;20477;-66
2021/05/30 02:54:45;;;;;;;18.15;11.50;;;8.70;97.40;;;;;;5023102;28;20038;-66
2021/05/30 02:57:11;;;;;;;19.27;12.50;;;8.70;97.30;;;;;;5030411;28;20045;-66
2021/05/30 02:59:36;;;;;;;20.42;13.27;;;8.60;97.40;;;;;;5025495;28;20053;-66
2021/05/30 03:02:03;;;;;;;16.65;12.88;;;8.50;97.30;;;;;;5032036;28;20032;-66
2021/05/30 03:04:28;;;;;;;18.20;12.55;;;8.50;97.40;;;;;;5021771;28;20087;-66
2021/05/30 03:06:54;;;;;;;18.45;12.35;;;8.50;97.50;;;;;;5028863;28;20046;-66
2021/05/30 03:09:20;;;;;;;20.75;13.85;;;8.40;97.70;;;;;;5020693;28;20033;-66
2021/05/30 03:11:46;;;;;;;21.20;11.25;;;8.40;97.70;;;;;;5025244;28;20045;-66
2021/05/30 03:14:12;;;;;;;20.25;12.43;;;8.40;97.70;;;;;;5021502;28;20051;-66
2021/05/30 03:16:38;;;;;;;17.65;11.95;;;8.30;97.60;;;;;;5041331;28;20414;-66
2021/05/30 03:19:03;;;;;;;17.30;11.68;;;8.30;97.60;;;;;;5022347;28;20048;-66
2021/05/30 03:21:29;;;;;;;20.83;13.25;;;8.30;97.70;;;;;;5029051;28;20120;-66
2021/05/30 03:23:55;;;;;;;17.92;11.65;;;8.30;97.70;;;;;;5025954;28;20044;-66
2021/05/30 03:26:21;;;;;;;21.00;13.82;;;8.20;97.70;;;;;;5039315;28;20132;-66
2021/05/30 03:28:47;;;;;;;19.38;12.27;;;8.10;97.80;;;;;;5029512;28;20045;-66
2021/05/30 03:31:13;;;;;;;17.55;11.95;;;8.10;97.80;;;;;;5020524;28;20048;-66
2021/05/30 03:33:39;;;;;;;23.08;13.88;;;8.10;97.80;;;;;;5032138;28;20440;-66
2021/05/30 03:36:09;;;;;;;18.85;12.23;;;8.10;97.90;;;;;;5024915;28;20044;-66
2021/05/30 03:38:35;;;;;;;17.25;12.60;;;8.00;97.90;;;;;;5031990;28;20124;-66
2021/05/30 03:41:06;;;;;;;15.30;12.13;;;8.00;98.00;;;;;;5017770;28;20469;-66
2021/05/30 03:43:33;;;;;;;20.13;12.55;;;8.00;98.00;;;;;;5035996;28;20327;-66
2021/05/30 03:46:00;;;;;;;20.85;12.52;;;8.00;98.10;;;;;;5021231;28;20049;-66
2021/05/30 03:48:26;;;;;;;24.02;14.43;;;7.90;98.20;;;;;;5028003;28;20049;-66
2021/05/30 03:50:52;;;;;;;24.13;14.23;;;7.90;98.40;;;;;;5032519;28;20505;-66
2021/05/30 03:53:19;;;;;;;19.23;13.60;;;8.00;98.50;;;;;;5030029;28;20052;-66
2021/05/30 03:55:46;;;;;;;21.75;12.90;;;8.00;98.60;;;;;;5019903;28;20033;-66
2021/05/30 03:58:13;;;;;;;21.42;12.75;;;8.00;98.60;;;;;;5028318;28;20037;-66
2021/05/30 04:00:40;;;;;;;21.15;13.25;;;8.00;98.50;;;;;;5034697;28;20045;-66
2021/05/30 04:03:06;;;;;;;20.70;12.50;;;8.00;98.50;;;;;;5027673;28;20037;-66
2021/05/30 04:05:32;;;;;;;17.95;12.07;;;8.00;98.60;;;;;;5024485;28;20038;-66
2021/05/30 04:07:58;;;;;;;18.90;14.10;;;8.10;98.70;;;;;;5031913;28;20044;-66
2021/05/30 04:10:24;;;;;;;25.15;13.45;;;8.10;98.80;;;;;;5029604;28;20041;-66
2021/05/30 04:12:50;;;;;;;15.15;12.45;;;8.10;98.90;;;;;;5018772;28;20165;-66
2021/05/30 04:15:15;;;;;;;17.98;12.90;;;8.10;98.90;;;;;;5031169;28;20087;-66
2021/05/30 04:17:43;;;;;;;18.63;13.13;;;8.20;99.00;;;;;;5023980;28;20041;-66
2021/05/30 04:20:12;;;;;;;17.58;13.80;;;8.20;98.90;;;;;;5025487;28;20038;-66
2021/05/30 04:22:39;;;;;;;20.10;13.70;;;8.30;99.00;;;;;;5021952;28;20041;-66
2021/05/30 04:25:06;;;;;;;21.13;13.55;;;8.30;99.00;;;;;;5032424;28;20493;-66
2021/05/30 04:27:32;;;;;;;21.92;14.48;;;8.40;99.30;;;;;;5020940;28;20086;-66
2021/05/30 04:29:59;;;;;;;18.63;14.10;;;8.40;99.20;;;;;;5030238;28;20037;-66
2021/05/30 04:32:25;;;;;;;24.73;14.55;;;8.50;99.30;;;;;;5028987;28;20340;-66
2021/05/30 04:34:51;;;;;;;24.38;16.13;;;8.60;99.40;;;;;;5031994;28;20041;-66
2021/05/30 04:37:17;;;;;;;26.98;14.82;;;8.60;99.80;;;;;;5026839;28;20088;-66
2021/05/30 04:39:43;;;;;;;23.23;14.35;;;8.70;99.60;;;;;;5031744;28;20041;-66
2021/05/30 04:42:09;;;;;;;21.05;14.27;;;8.80;99.40;;;;;;5027865;28;20144;-66
2021/05/30 04:44:34;;;;;;;23.05;14.07;;;8.90;99.60;;;;;;5032849;28;20041;-66
2021/05/30 04:47:00;;;;;;;23.83;14.10;;;9.00;99.60;;;;;;5027598;28;20045;-66
2021/05/30 04:49:27;;;;;;;20.95;14.02;;;9.10;99.60;;;;;;5028417;28;20044;-66
2021/05/30 04:51:52;;;;;;;29.10;14.15;;;9.30;99.40;;;;;;5036260;28;20052;-66
2021/05/30 04:54:19;;;;;;;24.70;13.80;;;9.60;99.10;;;;;;5027834;28;20445;-66
2021/05/30 04:56:45;;;;;;;20.92;14.05;;;9.90;98.50;;;;;;5039214;28;20463;-66
2021/05/30 04:59:10;;;;;;;17.17;12.70;;;10.10;97.60;;;;;;5029611;28;20070;-66
2021/05/30 05:01:36;;;;;;;22.15;12.38;;;10.40;97.60;;;;;;5041625;28;20049;-66
2021/05/30 05:04:02;;;;;;;20.45;12.40;;;10.50;97.20;;;;;;5023951;28;20045;-66
2021/05/30 05:06:28;;;;;;;17.10;11.82;;;10.60;96.60;;;;;;5035979;28;20439;-66
2021/05/30 05:08:55;;;;;;;22.88;12.75;;;10.70;96.40;;;;;;5023042;28;20060;-66
2021/05/30 05:11:21;;;;;;;20.38;12.18;;;10.90;96.50;;;;;;5031622;28;20041;-66
2021/05/30 05:13:47;;;;;;;20.58;12.77;;;10.90;95.80;;;;;;5023776;28;20472;-66
2021/05/30 05:16:13;;;;;;;18.95;12.27;;;10.80;95.30;;;;;;5032799;28;20555;-66
2021/05/30 05:18:39;;;;;;;18.15;11.93;;;10.70;95.90;;;;;;5028034;28;20037;-66
2021/05/30 05:21:06;;;;;;;19.05;12.27;;;10.80;96.00;;;;;;5029820;28;20073;-66
2021/05/30 05:23:32;;;;;;;17.27;12.65;;;10.70;95.80;;;;;;5029809;28;20041;-66
2021/05/30 05:26:03;;;;;;;19.60;12.93;;;10.60;95.90;;;;;;5034111;28;20037;-66
2021/05/30 05:28:30;;;;;;;21.15;13.05;;;10.60;96.20;;;;;;5039141;28;20120;-66
2021/05/30 05:30:56;;;;;;;22.42;12.10;;;10.60;96.20;;;;;;5022205;28;20045;-66
2021/05/30 05:33:22;;;;;;;20.20;12.38;;;10.60;96.30;;;;;;5034562;28;20029;-66
2021/05/30 05:35:49;;;;;;;20.85;11.82;;;10.60;96.20;;;;;;5025696;28;20389;-66
2021/05/30 05:38:15;;;;;;;21.40;12.20;;;10.60;96.10;;;;;;5030886;28;20037;-66
2021/05/30 05:40:41;;;;;;;21.73;12.73;;;10.50;96.10;;;;;;5024146;28;20080;-66
2021/05/30 05:43:07;;;;;;;20.83;12.70;;;10.50;96.30;;;;;;5038392;28;20033;-66
2021/05/30 05:45:34;;;;;;;20.90;12.38;;;10.60;96.40;;;;;;5025134;28;20457;-66
2021/05/30 05:48:00;;;;;;;18.45;12.48;;;10.70;96.50;;;;;;5036473;28;20136;-66
2021/05/30 05:50:27;;;;;;;20.63;12.48;;;10.70;96.00;;;;;;5029308;28;20072;-66
2021/05/30 05:52:53;;;;;;;20.05;13.00;;;10.80;95.90;;;;;;5038953;28;20040;-66
2021/05/30 05:55:21;;;;;;;22.40;12.27;;;10.90;96.00;;;;;;5027698;28;20033;-66
2021/05/30 05:57:50;;;;;;;21.45;13.18;;;11.00;95.70;;;;;;5024007;28;20057;-66
2021/05/30 06:00:19;;;;;;;18.25;12.35;;;10.90;95.10;;;;;;5020553;28;20403;-66
2021/05/30 06:02:50;;;;;;;17.98;12.02;;;11.00;95.20;;;;;;5040197;28;20034;-66
2021/05/30 06:05:20;;;;;;;17.17;11.32;;;11.00;95.20;;;;;;5021742;28;20064;-66
2021/05/30 06:07:48;;;;;;;19.75;11.48;;;11.10;95.30;;;;;;5027815;28;20045;-66
2021/05/30 06:10:16;;;;;;;19.52;11.35;;;11.20;95.20;;;;;;5027574;28;20473;-66
2021/05/30 06:12:42;;;;;;;17.92;10.63;;;11.30;95.00;;;;;;5022432;28;20038;-66
2021/05/30 06:15:09;;;;;;;18.38;11.75;;;11.30;94.40;;;;;;5033984;28;20044;-66
2021/05/30 06:17:36;;;;;;;23.50;11.70;;;11.30;94.50;;;;;;5024177;28;20049;-66
2021/05/30 06:20:03;;;;;;;18.95;10.13;;;11.30;94.50;;;;;;5034849;28;20060;-66
2021/05/30 06:22:29;;;;;;;18.65;11.32;;;11.50;94.80;;;;;;5026023;28;20136;-66
2021/05/30 06:24:55;;;;;;;19.90;12.02;;;11.60;94.00;;;;;;5028757;28;20037;-66
2021/05/30 06:27:21;;;;;;;18.25;11.63;;;11.70;94.20;;;;;;5024565;28;20069;-66
2021/05/30 06:29:47;;;;;;;19.23;11.23;;;11.80;93.70;;;;;;5035905;28;20051;-66
2021/05/30 06:32:13;;;;;;;16.65;10.32;;;11.90;93.70;;;;;;5023420;28;20378;-66
2021/05/30 06:34:39;;;;;;;20.40;11.73;;;12.00;93.90;;;;;;5030737;28;20547;-66
2021/05/30 06:37:05;;;;;;;22.00;13.00;;;12.10;93.70;;;;;;5024042;28;20041;-67
2021/05/30 06:39:32;;;;;;;17.30;12.02;;;12.10;93.30;;;;;;5026682;28;20069;-67
2021/05/30 06:41:58;;;;;;;17.85;11.95;;;12.20;93.40;;;;;;5018739;28;20068;-67
2021/05/30 06:44:23;;;;;;;17.52;11.02;;;12.30;93.50;;;;;;5027244;28;20046;-67
2021/05/30 06:46:49;;;;;;;18.80;10.43;;;12.40;93.10;;;;;;5026520;28;20045;-67
2021/05/30 06:49:15;;;;;;;16.85;11.88;;;12.40;93.00;;;;;;5024584;28;20029;-67
2021/05/30 06:51:42;;;;;;;16.80;12.70;;;12.50;92.20;;;;;;5034119;28;20041;-67
2021/05/30 06:54:09;;;;;;;19.88;11.65;;;12.60;92.50;;;;;;5035250;28;20037;-67
2021/05/30 06:56:36;;;;;;;16.33;11.63;;;12.60;92.40;;;;;;5031912;28;20116;-67
2021/05/30 06:59:02;;;;;;;18.45;12.57;;;12.70;92.10;;;;;;5018018;28;20033;-67
2021/05/30 07:01:28;;;;;;;17.70;11.63;;;12.70;92.30;;;;;;5026211;28;20490;-67
2021/05/30 07:03:55;;;;;;;16.73;11.57;;;12.90;92.10;;;;;;5027706;28;20064;-67
2021/05/30 07:06:24;;;;;;;19.17;11.60;;;12.90;91.60;;;;;;5027845;28;20088;-66
2021/05/30 07:09:05;;;;;;;19.77;12.60;;;12.90;91.90;;;;;;5023840;28;20489;-66
2021/05/30 07:11:31;;;;;;;22.02;12.88;;;13.00;92.00;;;;;;5036186;28;20123;-66
2021/05/30 07:13:57;;;;;;;17.38;11.52;;;13.20;91.70;;;;;;5024645;28;20708;-66
2021/05/30 07:16:23;;;;;;;19.17;12.23;;;13.30;91.10;;;;;;5031649;28;20116;-67
2021/05/30 07:18:49;;;;;;;17.98;11.13;;;13.40;91.30;;;;;;5026230;28;20445;-67
2021/05/30 07:21:15;;;;;;;15.60;11.75;;;13.50;91.50;;;;;;5026093;28;20095;-67
2021/05/30 07:23:42;;;;;;;17.50;12.40;;;13.70;90.90;;;;;;5027212;28;20045;-67
2021/05/30 07:26:08;;;;;;;17.75;11.25;;;13.80;90.80;;;;;;5025824;28;20055;-67
2021/05/30 07:28:33;;;;;;;18.83;12.00;;;13.80;90.20;;;;;;5017907;28;20053;-67
2021/05/30 07:30:59;;;;;;;17.25;12.02;;;13.90;90.40;;;;;;5031348;28;20127;-67
2021/05/30 07:33:27;;;;;;;18.70;11.73;;;13.90;89.50;;;;;;5029259;28;20076;-67
2021/05/30 07:35:53;;;;;;;12.90;11.13;;;14.10;90.50;;;;;;5027795;28;20508;-67
2021/05/30 07:38:20;;;;;;;17.00;12.55;;;14.20;90.40;;;;;;5028476;28;20053;-67
2021/05/30 07:40:46;;;;;;;17.63;12.82;;;14.40;89.00;;;;;;5014268;28;20038;-67
2021/05/30 07:43:13;;;;;;;18.23;11.90;;;14.60;88.30;;;;;;5030357;28;20057;-67
2021/05/30 07:45:39;;;;;;;17.60;12.18;;;14.80;86.80;;;;;;5027659;28;20471;-67
2021/05/30 07:48:06;;;;;;;15.95;10.98;;;14.90;85.80;;;;;;5029396;28;20045;-67
2021/05/30 07:50:32;;;;;;;17.13;11.68;;;14.90;85.50;;;;;;5026738;28;20111;-67
2021/05/30 07:53:00;;;;;;;21.17;12.73;;;15.00;84.40;;;;;;5033361;28;20053;-67
2021/05/30 07:55:39;;;;;;;18.65;13.07;;;14.90;85.50;;;;;;5020467;28;20087;-67
2021/05/30 07:58:05;;;;;;;18.17;12.05;;;15.10;85.80;;;;;;5029464;28;20034;-68
2021/05/30 08:00:31;;;;;;;18.05;13.23;;;15.10;85.20;;;;;;5026559;28;20474;-69
2021/05/30 08:02:57;;;;;;;19.58;11.32;;;15.20;84.20;;;;;;5030892;28;20041;-69
2021/05/30 08:05:23;;;;;;;16.50;12.15;;;15.20;83.80;;;;;;5023884;28;20046;-69
2021/05/30 08:07:50;;;;;;;19.15;12.52;;;15.30;83.80;;;;;;5039201;28;20033;-69
2021/05/30 08:10:17;;;;;;;17.70;11.85;;;15.50;86.20;;;;;;5028251;28;20963;-68
2021/05/30 08:12:43;;;;;;;18.50;12.00;;;15.70;84.60;;;;;;5036074;28;20033;-68
2021/05/30 08:15:10;;;;;;;14.98;11.15;;;15.90;84.50;;;;;;5038149;28;20049;-69
2021/05/30 08:17:37;;;;;;;17.67;12.35;;;16.00;83.30;;;;;;5041071;28;20087;-69
2021/05/30 08:20:22;;;;;;;18.10;11.88;;;16.10;81.80;;;;;;5033833;28;20489;-69
2021/05/30 08:22:48;;;;;;;18.58;11.55;;;16.30;80.60;;;;;;5026094;28;20064;-69
2021/05/30 08:25:15;;;;;;;15.73;12.10;;;16.50;81.20;;;;;;5025961;28;20041;-69
2021/05/30 08:27:42;;;;;;;16.90;11.55;;;16.70;80.60;;;;;;5026301;28;20145;-69
2021/05/30 08:30:09;;;;;;;14.20;11.60;;;16.90;78.60;;;;;;5034441;28;20037;-70
2021/05/30 08:32:36;;;;;;;15.90;10.85;;;17.00;76.60;;;;;;5029135;28;20385;-70
2021/05/30 08:35:03;;;;;;;14.80;11.15;;;17.20;78.70;;;;;;5035053;28;20138;-69
2021/05/30 08:37:29;;;;;;;15.23;11.48;;;17.30;75.60;;;;;;5020095;28;20041;-69
2021/05/30 08:39:55;;;;;;;15.27;12.57;;;17.50;77.40;;;;;;5030504;28;20524;-69
2021/05/30 08:42:22;;;;;;;15.65;11.32;;;17.60;77.10;;;;;;5024544;28;20041;-69
2021/05/30 08:44:52;;;;;;;15.30;12.18;;;17.90;77.90;;;;;;5033422;28;20179;-69
2021/05/30 08:47:19;;;;;;;16.00;11.82;;;18.00;73.30;;;;;;5021223;28;20065;-70
2021/05/30 08:49:45;;;;;;;15.27;11.43;;;18.10;74.90;;;;;;5040293;28;20141;-63
2021/05/30 08:52:11;;;;;;;13.73;12.30;;;18.10;72.40;;;;;;5033916;28;20489;-63
2021/05/30 08:54:38;;;;;;;17.25;12.20;;;18.20;74.20;;;;;;5029099;28;20072;-66
2021/05/30 08:57:04;;;;;;;15.73;11.25;;;18.40;71.30;;;;;;5029299;28;20210;-65
2021/05/30 08:59:36;;;;;;;14.77;11.10;;;18.60;72.20;;;;;;5039290;28;20492;-64
2021/05/30 09:02:16;;;;;;;12.95;10.82;;;18.80;72.00;;;;;;5028467;28;20042;-66
2021/05/30 09:04:52;;;;;;;13.80;11.02;;;19.00;68.80;;;;;;5033444;28;20033;-72
2021/05/30 09:07:35;;;;;;;15.98;12.20;;;18.90;68.20;;;;;;5026292;28;20059;-73
2021/05/30 09:10:05;;;;;;;16.17;12.33;;;19.00;68.40;;;;;;5029710;28;20141;-70
2021/05/30 09:12:37;;;;;;;12.48;11.18;;;19.00;69.90;;;;;;5030414;28;20484;-68
2021/05/30 09:15:07;;;;;;;12.48;10.25;;;18.90;67.30;;;;;;5029982;28;20045;-73
2021/05/30 09:17:33;;;;;;;13.00;10.95;;;18.90;66.10;;;;;;5030142;28;20048;-73
2021/05/30 09:20:00;;;;;;;11.63;10.30;;;18.90;67.70;;;;;;5029250;28;20034;-73
2021/05/30 09:22:39;;;;;;;11.50;10.30;;;19.10;69.50;;;;;;5028580;28;20038;-73
2021/05/30 09:25:11;;;;;;;14.82;10.32;;;19.40;68.30;;;;;;5027672;28;20040;-73
2021/05/30 09:27:43;;;;;;;11.48;10.27;;;19.70;68.00;;;;;;5028220;28;20048;-73
2021/05/30 09:30:16;;;;;;;12.90;10.95;;;19.90;65.60;;;;;;5027747;28;20072;-74
2021/05/30 09:32:58;;;;;;;13.38;9.95;;;20.00;64.60;;;;;;5039011;28;20489;-73
2021/05/30 09:35:44;;;;;;;14.50;10.60;;;20.10;62.20;;;;;;5025520;28;20044;-73
2021/05/30 09:38:18;;;;;;;14.32;9.52;;;20.20;64.70;;;;;;5021450;28;20125;-74
2021/05/30 09:40:53;;;;;;;13.32;9.23;;;20.40;61.10;;;;;;5026022;28;20397;-74
2021/05/30 09:43:24;;;;;;;10.52;8.70;;;20.40;63.40;;;;;;5037578;28;20438;-74
2021/05/30 09:46:02;;;;;;;9.82;8.82;;;20.50;62.80;;;;;;5026870;28;20129;-74
2021/05/30 09:48:28;;;;;;;10.20;9.10;;;20.70;62.40;;;;;;5032064;28;20038;-73
2021/05/30 09:51:06;;;;;;;10.48;9.00;;;21.00;61.20;;;;;;5026900;28;20132;-74
2021/05/30 09:53:51;;;;;;;11.27;9.60;;;21.20;60.30;;;;;;5039056;28;20044;-73
2021/05/30 09:56:27;;;;;;;10.85;7.82;;;21.50;60.10;;;;;;5025714;28;20048;-73
2021/05/30 09:58:54;;;;;;;12.00;9.13;;;21.70;57.40;;;;;;5030474;28;20108;-73
2021/05/30 10:01:20;;;;;;;10.05;8.95;;;21.60;59.00;;;;;;5030361;28;20060;-73
2021/05/30 10:03:46;;;;;;;11.82;7.88;;;21.50;57.90;;;;;;5034489;28;20050;-73
2021/05/30 10:06:13;;;;;;;10.65;7.63;;;21.50;57.90;;;;;;5026998;28;20511;-73
2021/05/30 10:08:39;;;;;;;9.95;7.93;;;21.50;58.50;;;;;;5032355;28;20197;-73
2021/05/30 10:11:05;;;;;;;10.45;7.88;;;21.50;57.10;;;;;;5027710;28;20943;-73
2021/05/30 10:13:31;;;;;;;10.88;8.18;;;21.70;57.40;;;;;;5033974;28;20120;-73
2021/05/30 10:15:59;;;;;;;10.80;8.23;;;21.70;55.60;;;;;;5028475;28;20121;-74
2021/05/30 10:18:35;;;;;;;10.05;7.22;;;21.80;56.80;;;;;;5036075;28;20040;-74
2021/05/30 10:21:03;;;;;;;8.30;7.07;;;22.00;55.00;;;;;;5023045;28;20034;-74
2021/05/30 10:23:31;;;;;;;9.80;7.82;;;22.30;54.10;;;;;;5035638;28;20133;-74
2021/05/30 10:26:17;;;;;;;9.45;7.97;;;22.50;54.50;;;;;;5024427;28;20427;-74
2021/05/30 10:29:07;;;;;;;11.35;7.78;;;22.90;52.00;;;;;;5036953;28;20056;-74
2021/05/30 10:31:35;;;;;;;8.27;6.38;;;22.90;49.50;;;;;;5027571;28;20520;-74
2021/05/30 10:34:17;;;;;;;9.18;5.90;;;23.00;52.30;;;;;;5033738;28;20041;-74
2021/05/30 10:37:03;;;;;;;7.70;6.05;;;23.10;51.00;;;;;;5024121;28;20033;-73
2021/05/30 10:39:29;;;;;;;8.15;6.68;;;23.20;52.30;;;;;;5029718;28;20033;-73
2021/05/30 10:42:16;;;;;;;8.48;6.25;;;23.30;50.40;;;;;;5023929;28;20112;-73
2021/05/30 10:44:49;;;;;;;9.45;6.05;;;23.50;47.70;;;;;;5032646;28;20121;-74
2021/05/30 10:47:16;;;;;;;6.88;6.13;;;23.40;50.50;;;;;;5023866;28;20046;-75
2021/05/30 10:50:09;;;;;;;9.27;6.68;;;23.50;51.00;;;;;;5035898;28;20037;-77
2021/05/30 10:52:38;;;;;;;10.43;7.72;;;23.90;49.40;;;;;;5028193;28;20496;-74
2021/05/30 10:55:17;;;;;;;8.25;5.72;;;24.00;50.10;;;;;;5032664;28;20044;-74
2021/05/30 10:57:46;;;;;;;7.70;5.60;;;24.00;48.20;;;;;;5030074;28;20068;-74
2021/05/30 11:00:21;;;;;;;7.57;4.88;;;24.10;48.70;;;;;;5031497;28;20076;-73
2021/05/30 11:03:02;;;;;;;7.10;5.18;;;24.30;48.20;;;;;;5021890;28;20051;-73
2021/05/30 11:05:45;;;;;;;7.60;5.53;;;24.60;47.20;;;;;;5030698;28;20449;-74
2021/05/30 11:08:32;;;;;;;8.88;5.25;;;24.60;48.10;;;;;;5030014;28;20029;-74
2021/05/30 11:11:18;;;;;;;8.25;5.10;;;24.50;46.50;;;;;;5040115;28;20060;-74
2021/05/30 11:13:57;;;;;;;7.63;5.05;;;24.40;47.60;;;;;;5026893;28;20041;-75
2021/05/30 11:16:31;;;;;;;7.78;5.47;;;24.60;48.80;;;;;;5027701;28;20065;-74
2021/05/30 11:19:02;;;;;;;7.13;5.38;;;24.80;47.80;;;;;;5023853;28;20441;-73
2021/05/30 11:21:28;;;;;;;7.60;5.75;;;25.00;46.60;;;;;;5031395;28;20532;-73
2021/05/30 11:23:57;;;;;;;8.20;5.45;;;25.10;46.30;;;;;;5029060;28;20060;-74
2021/05/30 11:26:22;;;;;;;9.02;5.43;;;25.30;44.00;;;;;;5027217;28;20041;-75
2021/05/30 11:28:48;;;;;;;8.30;5.72;;;25.60;45.60;;;;;;5022400;28;20091;-75
2021/05/30 11:31:15;;;;;;;7.75;5.30;;;25.50;45.40;;;;;;5032176;28;20140;-75
2021/05/30 11:33:43;;;;;;;8.23;5.30;;;25.50;45.80;;;;;;5027187;28;20497;-74
2021/05/30 11:36:14;;;;;;;6.35;5.03;;;25.30;45.30;;;;;;5027872;28;20130;-74
2021/05/30 11:39:05;;;;;;;6.82;5.20;;;25.40;46.40;;;;;;5033385;28;20088;-77
2021/05/30 11:41:38;;;;;;;7.78;5.10;;;25.40;43.60;;;;;;5025097;28;20061;-75
2021/05/30 11:44:15;;;;;;;5.82;5.18;;;25.30;45.60;;;;;;5024965;28;20571;-75
2021/05/30 11:46:58;;;;;;;8.50;5.35;;;25.30;46.00;;;;;;5020447;28;20057;-75
2021/05/30 11:49:25;;;;;;;9.20;5.63;;;25.10;44.70;;;;;;5024591;28;20044;-76
2021/05/30 11:51:53;;;;;;;8.45;5.10;;;24.90;45.60;;;;;;5032485;28;20080;-75
2021/05/30 11:54:21;;;;;;;6.97;4.78;;;25.10;44.70;;;;;;5018413;28;20107;-74
2021/05/30 11:56:48;;;;;;;10.45;4.10;;;25.40;44.40;;;;;;5023551;28;20074;-74
2021/05/30 11:59:15;;;;;;;7.20;4.57;;;25.70;45.40;;;;;;5025947;28;20422;-75
2021/05/30 12:01:48;;;;;;;6.25;3.97;;;25.90;43.70;;;;;;5032095;28;20116;-75
2021/05/30 12:04:34;;;;;;;7.95;4.65;;;26.00;44.70;;;;;;5019060;28;20041;-75
2021/05/30 12:07:00;;;;;;;6.35;4.07;;;25.90;41.80;;;;;;5025978;28;20489;-75
2021/05/30 12:09:46;;;;;;;5.40;3.38;;;25.70;43.40;;;;;;5033100;28;20507;-75
2021/05/30 12:12:28;;;;;;;6.80;3.50;;;25.50;42.10;;;;;;5042356;28;20396;-75
2021/05/30 12:15:03;;;;;;;4.88;3.08;;;25.20;41.80;;;;;;5024214;28;20040;-76
2021/05/30 12:17:29;;;;;;;6.75;3.70;;;25.10;43.90;;;;;;5027578;28;20041;-71
2021/05/30 12:19:55;;;;;;;7.20;4.00;;;25.00;44.80;;;;;;5026544;28;20041;-74
2021/05/30 12:22:23;;;;;;;7.97;3.42;;;25.20;44.00;;;;;;5027163;28;20137;-72
2021/05/30 12:24:50;;;;;;;5.65;3.10;;;25.30;46.40;;;;;;5023144;28;20048;-72
2021/05/30 12:27:16;;;;;;;6.43;3.88;;;25.50;45.80;;;;;;5027371;28;20033;-73
2021/05/30 12:29:48;;;;;;;5.55;3.42;;;25.40;45.90;;;;;;5026093;28;20041;-73
2021/05/30 12:32:15;;;;;;;7.60;3.55;;;25.60;44.70;;;;;;5022461;28;20564;-72
2021/05/30 12:34:42;;;;;;;5.40;2.90;;;25.70;46.50;;;;;;5024725;28;20038;-73
2021/05/30 12:37:08;;;;;;;5.45;3.03;;;25.80;44.40;;;;;;5020253;28;20491;-72
2021/05/30 12:39:34;;;;;;;5.65;3.10;;;25.70;44.30;;;;;;5028442;28;20474;-72